createdAt,value
2024-01-27T00:00:59.239Z,26.33
2024-01-27T00:03:26.562Z,23.15
2024-01-27T00:05:54.279Z,27.73
2024-01-27T00:08:22.747Z,28.20
2024-01-27T00:10:50.163Z,27.13
2024-01-27T00:13:17.430Z,28.23
2024-01-27T00:15:44.777Z,26.27
2024-01-27T00:18:12.486Z,24.77
2024-01-27T00:20:40.044Z,29.15
2024-01-27T00:23:07.288Z,25.25
2024-01-27T00:25:34.717Z,26.98
2024-01-27T00:28:01.971Z,24.38
2024-01-27T00:30:29.475Z,26.08
2024-01-27T00:32:56.905Z,27.30
2024-01-27T00:35:25.415Z,26.00
2024-01-27T00:37:52.788Z,26.13
2024-01-27T00:40:20.410Z,27.52
2024-01-27T00:42:47.681Z,28.85
2024-01-27T00:45:15.308Z,22.20
2024-01-27T00:47:42.647Z,29.65
2024-01-27T00:50:10.457Z,26.95
2024-01-27T00:52:37.862Z,25.77
2024-01-27T00:55:05.787Z,23.27
2024-01-27T00:57:33.168Z,25.00
2024-01-27T01:00:00.657Z,23.92
2024-01-27T01:02:28.238Z,22.42
2024-01-27T01:04:55.601Z,23.30
2024-01-27T01:07:22.804Z,22.27
2024-01-27T01:09:50.398Z,24.92
2024-01-27T01:12:17.753Z,24.73
2024-01-27T01:14:45.427Z,26.55
2024-01-27T01:17:14.206Z,28.20
2024-01-27T01:19:43.818Z,23.52
2024-01-27T01:22:13.469Z,26.35
2024-01-27T01:24:41.203Z,25.65
2024-01-27T01:27:08.576Z,31.05
2024-01-27T01:29:36.491Z,25.35
2024-01-27T01:32:04.229Z,23.55
2024-01-27T01:34:33.229Z,27.17
2024-01-27T01:37:00.564Z,25.88
2024-01-27T01:39:28.098Z,25.90
2024-01-27T01:41:55.522Z,26.05
2024-01-27T01:44:23.116Z,24.30
2024-01-27T01:46:50.611Z,25.88
2024-01-27T01:49:18.027Z,25.33
2024-01-27T01:51:45.550Z,23.05
2024-01-27T01:54:22.573Z,25.48
2024-01-27T01:56:50.548Z,22.13
2024-01-27T01:59:17.886Z,21.13
2024-01-27T02:01:46.658Z,26.02
2024-01-27T02:04:14.121Z,24.98
2024-01-27T02:06:41.770Z,22.85
2024-01-27T02:09:09.077Z,25.50
2024-01-27T02:11:36.678Z,26.33
2024-01-27T02:14:03.909Z,23.45
2024-01-27T02:16:31.277Z,21.90
2024-01-27T02:18:58.817Z,27.83
2024-01-27T02:21:26.343Z,22.73
2024-01-27T02:23:53.664Z,21.33
2024-01-27T02:26:21.169Z,22.10
2024-01-27T02:28:48.401Z,23.40
2024-01-27T02:31:16.268Z,21.48
2024-01-27T02:33:43.595Z,27.02
2024-01-27T02:36:11.320Z,21.08
2024-01-27T02:38:38.663Z,24.27
2024-01-27T02:41:06.146Z,21.88
2024-01-27T02:43:33.542Z,19.98
2024-01-27T02:46:00.896Z,22.95
2024-01-27T02:48:28.268Z,23.63
2024-01-27T02:50:55.728Z,21.20
2024-01-27T02:53:23.152Z,23.55
2024-01-27T02:55:51.917Z,25.20
2024-01-27T02:58:20.666Z,20.52
2024-01-27T03:00:48.174Z,21.92
2024-01-27T03:03:16.517Z,22.15
2024-01-27T03:05:44.219Z,20.70
2024-01-27T03:08:11.587Z,26.60
2024-01-27T03:10:39.050Z,21.02
2024-01-27T03:13:06.291Z,22.73
2024-01-27T03:15:33.562Z,22.92
2024-01-27T03:18:00.975Z,21.00
2024-01-27T03:20:29.123Z,18.85
2024-01-27T03:22:56.567Z,25.42
2024-01-27T03:25:26.920Z,16.77
2024-01-27T03:27:54.291Z,21.80
2024-01-27T03:30:21.572Z,24.05
2024-01-27T03:32:49.882Z,23.70
2024-01-27T03:35:17.319Z,23.33
2024-01-27T03:37:45.889Z,18.00
2024-01-27T03:40:13.628Z,23.25
2024-01-27T03:42:41.006Z,22.42
2024-01-27T03:45:08.632Z,20.70
2024-01-27T03:47:36.011Z,17.75
2024-01-27T03:50:03.558Z,18.55
2024-01-27T03:52:31.056Z,20.92
2024-01-27T03:54:58.718Z,20.60
2024-01-27T03:57:26.279Z,20.10
2024-01-27T03:59:53.725Z,22.25
2024-01-27T04:02:21.206Z,22.13
2024-01-27T04:04:49.752Z,21.38
2024-01-27T04:07:17.410Z,23.33
2024-01-27T04:09:44.812Z,21.63
2024-01-27T04:12:12.275Z,24.92
2024-01-27T04:14:39.569Z,24.73
2024-01-27T04:17:07.164Z,23.67
2024-01-27T04:19:34.551Z,22.25
2024-01-27T04:22:02.101Z,21.63
2024-01-27T04:24:29.388Z,19.15
2024-01-27T04:26:56.793Z,21.55
2024-01-27T04:29:24.224Z,24.10
2024-01-27T04:31:51.557Z,20.98
2024-01-27T04:34:19.148Z,20.20
2024-01-27T04:36:46.656Z,21.48
2024-01-27T04:39:15.119Z,23.15
2024-01-27T04:41:45.648Z,23.70
2024-01-27T04:44:13.205Z,23.17
2024-01-27T04:46:40.475Z,24.00
2024-01-27T04:49:09.092Z,25.17
2024-01-27T04:51:36.503Z,24.63
2024-01-27T04:54:04.434Z,22.73
2024-01-27T04:56:31.689Z,22.92
2024-01-27T04:58:59.007Z,23.02
2024-01-27T05:01:26.376Z,27.40
2024-01-27T05:03:53.900Z,24.52
2024-01-27T05:06:21.442Z,24.15
2024-01-27T05:08:48.748Z,24.38
2024-01-27T05:11:18.915Z,26.58
2024-01-27T05:13:46.276Z,23.80
2024-01-27T05:16:13.494Z,24.30
2024-01-27T05:18:41.030Z,25.95
2024-01-27T05:21:08.446Z,23.73
2024-01-27T05:23:35.956Z,26.58
2024-01-27T05:26:03.251Z,26.45
2024-01-27T05:28:30.697Z,27.58
2024-01-27T05:30:57.919Z,25.10
2024-01-27T05:33:25.540Z,27.13
2024-01-27T05:35:52.860Z,27.50
2024-01-27T05:38:20.126Z,24.88
2024-01-27T05:40:47.558Z,27.58
2024-01-27T05:43:14.887Z,24.50
2024-01-27T05:45:42.244Z,31.92
2024-01-27T05:48:09.671Z,28.20
2024-01-27T05:50:37.333Z,39.15
2024-01-27T05:53:05.059Z,33.33
2024-01-27T05:55:32.497Z,43.40
2024-01-27T05:57:59.886Z,37.30
2024-01-27T06:00:27.192Z,41.65
2024-01-27T06:02:54.800Z,39.38
2024-01-27T06:05:22.026Z,40.47
2024-01-27T06:07:50.549Z,38.13
2024-01-27T06:10:19.759Z,37.53
2024-01-27T06:12:47.229Z,47.72
2024-01-27T06:15:16.949Z,48.80
2024-01-27T06:17:44.331Z,45.85
2024-01-27T06:20:12.572Z,41.55
2024-01-27T06:22:40.357Z,46.45
2024-01-27T06:25:09.507Z,44.65
2024-01-27T06:27:36.837Z,42.83
2024-01-27T06:30:04.403Z,42.00
2024-01-27T06:32:31.835Z,37.03
2024-01-27T06:34:59.153Z,36.72
2024-01-27T06:37:26.831Z,39.03
2024-01-27T06:39:55.387Z,39.60
2024-01-27T06:42:22.816Z,40.45
2024-01-27T06:44:50.134Z,40.20
2024-01-27T06:47:17.994Z,36.08
2024-01-27T06:49:45.343Z,35.08
2024-01-27T06:52:13.680Z,40.58
2024-01-27T06:54:45.438Z,45.53
2024-01-27T06:57:23.316Z,39.65
2024-01-27T06:59:53.962Z,37.55
2024-01-27T07:02:30.339Z,38.13
2024-01-27T07:04:57.995Z,41.33
2024-01-27T07:07:29.245Z,33.47
2024-01-27T07:09:57.173Z,36.28
2024-01-27T07:12:24.682Z,38.58
2024-01-27T07:14:57.996Z,36.20
2024-01-27T07:17:25.803Z,36.60
2024-01-27T07:19:53.230Z,32.17
2024-01-27T07:22:20.639Z,32.75
2024-01-27T07:24:48.054Z,38.95
2024-01-27T07:27:15.359Z,37.03
2024-01-27T07:29:42.685Z,35.08
2024-01-27T07:32:14.740Z,35.72
2024-01-27T07:34:44.113Z,35.85
2024-01-27T07:37:11.431Z,43.05
2024-01-27T07:39:39.105Z,29.42
2024-01-27T07:42:06.661Z,34.85
2024-01-27T07:44:34.107Z,27.00
2024-01-27T07:47:01.320Z,34.20
2024-01-27T07:49:30.021Z,36.85
2024-01-27T07:51:57.457Z,35.60
2024-01-27T07:54:24.984Z,34.78
2024-01-27T07:56:53.138Z,33.70
2024-01-27T07:59:20.881Z,35.08
2024-01-27T08:01:48.260Z,34.72
2024-01-27T08:04:17.138Z,38.13
2024-01-27T08:06:51.919Z,30.05
2024-01-27T08:09:20.043Z,34.92
2024-01-27T08:11:53.075Z,34.08
2024-01-27T08:16:48.925Z,33.53
2024-01-27T08:19:22.084Z,32.15
2024-01-27T08:21:49.884Z,31.98
2024-01-27T08:24:17.674Z,30.40
2024-01-27T08:26:47.832Z,27.52
2024-01-27T08:29:15.723Z,27.83
2024-01-27T08:31:45.313Z,29.58
2024-01-27T08:34:14.388Z,29.52
2024-01-27T08:36:42.056Z,31.80
2024-01-27T08:39:10.281Z,21.25
2024-01-27T08:41:37.787Z,20.60
2024-01-27T08:44:05.328Z,18.30
2024-01-27T08:46:32.751Z,19.65
2024-01-27T08:49:00.138Z,23.17
2024-01-27T08:51:27.635Z,21.88
2024-01-27T08:53:54.935Z,19.65
2024-01-27T08:56:22.396Z,20.67
2024-01-27T08:58:49.956Z,23.85
2024-01-27T09:01:18.898Z,22.58
2024-01-27T09:03:46.448Z,26.80
2024-01-27T09:06:14.204Z,33.30
2024-01-27T09:08:41.561Z,22.17
2024-01-27T09:11:10.590Z,25.95
2024-01-27T09:13:37.923Z,20.38
2024-01-27T09:16:05.396Z,24.27
2024-01-27T09:18:32.941Z,22.95
2024-01-27T09:21:00.388Z,24.98
2024-01-27T09:23:27.645Z,18.67
2024-01-27T09:25:55.060Z,22.23
2024-01-27T09:28:22.254Z,20.52
2024-01-27T09:30:49.695Z,20.40
2024-01-27T09:33:18.926Z,23.05
2024-01-27T09:35:47.006Z,23.25
2024-01-27T09:38:15.810Z,25.65
2024-01-27T09:40:43.190Z,26.10
2024-01-27T09:43:16.448Z,20.60
2024-01-27T09:45:43.963Z,25.65
2024-01-27T09:48:13.691Z,24.48
2024-01-27T09:50:46.814Z,22.35
2024-01-27T09:53:14.054Z,24.00
2024-01-27T09:55:41.648Z,19.85
2024-01-27T09:58:10.149Z,21.17
2024-01-27T10:00:38.234Z,23.95
2024-01-27T10:03:07.545Z,22.13
2024-01-27T10:05:36.180Z,20.08
2024-01-27T10:08:07.195Z,24.27
2024-01-27T10:10:34.478Z,21.88
2024-01-27T10:13:05.212Z,21.88
2024-01-27T10:15:32.791Z,13.68
2024-01-27T10:18:09.956Z,13.40
2024-01-27T10:20:37.702Z,16.27
2024-01-27T10:23:14.572Z,15.30
2024-01-27T10:25:43.236Z,14.07
2024-01-27T10:28:11.121Z,10.60
2024-01-27T10:30:39.657Z,13.95
2024-01-27T10:36:00.279Z,12.93
2024-01-27T10:38:37.844Z,12.30
2024-01-27T10:41:11.639Z,13.98
2024-01-27T10:43:40.756Z,18.20
2024-01-27T10:46:09.800Z,11.52
2024-01-27T10:48:37.983Z,12.68
2024-01-27T10:51:09.611Z,14.70
2024-01-27T10:53:38.660Z,13.27
2024-01-27T10:56:10.908Z,11.30
2024-01-27T10:58:43.600Z,14.25
2024-01-27T11:01:13.541Z,17.00
2024-01-27T11:03:42.784Z,15.38
2024-01-27T11:06:13.110Z,12.02
2024-01-27T11:08:43.923Z,17.10
2024-01-27T11:11:12.838Z,13.25
2024-01-27T11:13:40.975Z,16.20
2024-01-27T11:16:18.511Z,14.82
2024-01-27T11:18:46.945Z,12.48
2024-01-27T11:21:18.356Z,14.88
2024-01-27T11:23:49.168Z,14.50
2024-01-27T11:26:22.999Z,12.90
2024-01-27T11:28:51.142Z,13.90
2024-01-27T11:31:21.700Z,15.68
2024-01-27T11:33:54.381Z,19.92
2024-01-27T11:36:26.593Z,19.77
2024-01-27T11:38:55.521Z,14.35
2024-01-27T11:41:27.743Z,21.42
2024-01-27T11:44:03.686Z,17.85
2024-01-27T11:46:31.285Z,18.20
2024-01-27T11:48:59.093Z,16.10
2024-01-27T11:51:28.211Z,17.13
2024-01-27T11:53:55.740Z,21.38
2024-01-27T11:56:23.072Z,14.43
2024-01-27T11:58:51.966Z,17.00
2024-01-27T12:01:19.656Z,15.82
2024-01-27T12:03:47.620Z,13.05
2024-01-27T12:06:15.884Z,18.65
2024-01-27T12:08:49.606Z,14.07
2024-01-27T12:11:21.025Z,17.17
2024-01-27T12:13:53.651Z,20.33
2024-01-27T12:16:23.475Z,18.00
2024-01-27T12:18:56.178Z,16.60
2024-01-27T12:21:25.530Z,22.13
2024-01-27T12:23:54.639Z,23.30
2024-01-27T12:26:31.481Z,20.58
2024-01-27T12:28:59.923Z,40.00
2024-01-27T12:31:29.497Z,25.58
2024-01-27T12:34:01.102Z,17.00
2024-01-27T12:36:28.936Z,20.00
2024-01-27T12:38:56.812Z,15.85
2024-01-27T12:41:25.965Z,16.65
2024-01-27T12:43:54.135Z,19.42
2024-01-27T12:46:21.790Z,18.42
2024-01-27T12:48:49.940Z,18.77
2024-01-27T12:51:17.493Z,16.15
2024-01-27T12:53:45.862Z,15.68
2024-01-27T12:56:14.915Z,15.00
2024-01-27T12:58:43.372Z,14.32
2024-01-27T13:01:10.966Z,14.27
2024-01-27T13:03:40.252Z,9.88
2024-01-27T13:06:09.672Z,16.40
2024-01-27T13:08:36.993Z,14.35
2024-01-27T13:11:05.042Z,11.77
2024-01-27T13:13:32.362Z,15.35
2024-01-27T13:15:59.873Z,15.65
2024-01-27T13:18:27.247Z,10.95
2024-01-27T13:20:54.894Z,15.60
2024-01-27T13:23:22.190Z,10.98
2024-01-27T13:26:02.024Z,12.02
2024-01-27T13:28:36.009Z,12.40
2024-01-27T13:31:03.371Z,13.73
2024-01-27T13:33:31.011Z,11.02
2024-01-27T13:36:01.137Z,12.20
2024-01-27T13:38:28.998Z,14.70
2024-01-27T13:40:56.545Z,12.13
2024-01-27T13:43:24.105Z,11.90
2024-01-27T13:45:52.816Z,14.50
2024-01-27T13:48:20.499Z,14.95
2024-01-27T13:50:48.114Z,11.73
2024-01-27T13:53:15.409Z,14.73
2024-01-27T13:55:45.296Z,10.48
2024-01-27T13:58:12.722Z,16.65
2024-01-27T14:00:40.393Z,15.90
2024-01-27T14:03:08.413Z,16.95
2024-01-27T14:05:35.796Z,15.48
2024-01-27T14:08:03.493Z,14.52
2024-01-27T14:10:30.938Z,15.38
2024-01-27T14:12:58.603Z,15.02
2024-01-27T14:15:26.075Z,14.18
2024-01-27T14:17:53.704Z,18.02
2024-01-27T14:20:21.834Z,17.45
2024-01-27T14:22:49.213Z,19.73
2024-01-27T14:25:16.861Z,13.30
2024-01-27T14:27:44.595Z,24.85
2024-01-27T14:30:12.943Z,14.90
2024-01-27T14:32:42.102Z,18.58
2024-01-27T14:35:09.746Z,18.20
2024-01-27T14:37:39.142Z,14.10
2024-01-27T14:40:07.704Z,11.85
2024-01-27T14:42:37.427Z,13.65
2024-01-27T14:45:05.202Z,14.00
2024-01-27T14:47:32.617Z,15.70
2024-01-27T14:50:00.325Z,14.30
2024-01-27T14:52:28.078Z,18.15
2024-01-27T14:54:55.696Z,13.02
2024-01-27T14:57:23.324Z,14.55
2024-01-27T14:59:50.750Z,16.50
2024-01-27T15:02:22.516Z,16.33
2024-01-27T15:04:51.833Z,14.95
2024-01-27T15:07:22.771Z,12.77
2024-01-27T15:09:51.450Z,15.20
2024-01-27T15:12:19.113Z,15.27
2024-01-27T15:14:46.586Z,13.32
2024-01-27T15:17:14.106Z,12.13
2024-01-27T15:19:43.064Z,15.82
2024-01-27T15:22:11.937Z,12.82
2024-01-27T15:24:41.019Z,14.70
2024-01-27T15:27:11.887Z,11.93
2024-01-27T15:29:40.381Z,13.65
2024-01-27T15:32:08.771Z,18.83
2024-01-27T15:34:36.224Z,11.77
2024-01-27T15:37:05.028Z,13.95
2024-01-27T15:39:34.815Z,10.23
2024-01-27T15:42:05.500Z,9.88
2024-01-27T15:44:33.324Z,11.85
2024-01-27T15:47:01.532Z,9.98
2024-01-27T15:49:30.046Z,9.85
2024-01-27T15:51:57.615Z,9.65
2024-01-27T15:54:25.134Z,13.90
2024-01-27T15:56:52.522Z,12.00
2024-01-27T15:59:20.057Z,11.05
2024-01-27T16:01:47.779Z,17.35
2024-01-27T16:04:17.758Z,13.38
2024-01-27T16:06:46.555Z,10.13
2024-01-27T16:09:14.420Z,12.35
2024-01-27T16:11:41.885Z,16.10
2024-01-27T16:14:09.927Z,11.68
2024-01-27T16:16:38.747Z,11.77
2024-01-27T16:19:06.311Z,11.38
2024-01-27T16:21:34.178Z,14.20
2024-01-27T16:24:01.660Z,12.18
2024-01-27T16:26:30.420Z,12.65
2024-01-27T16:28:57.823Z,12.55
2024-01-27T16:31:25.275Z,11.52
2024-01-27T16:33:53.487Z,13.23
2024-01-27T16:36:21.121Z,12.23
2024-01-27T16:38:48.477Z,11.20
2024-01-27T16:41:16.539Z,14.07
2024-01-27T16:43:44.003Z,12.77
2024-01-27T16:46:11.934Z,13.68
2024-01-27T16:48:41.651Z,15.90
2024-01-27T16:51:09.327Z,16.48
2024-01-27T16:53:36.868Z,14.85
2024-01-27T16:56:06.256Z,14.38
2024-01-27T16:58:33.632Z,19.23
2024-01-27T17:01:01.241Z,15.80
2024-01-27T17:03:28.536Z,13.77
2024-01-27T17:05:56.120Z,95.97
2024-01-27T17:08:23.432Z,254.13
2024-01-27T17:10:50.706Z,130.68
2024-01-27T17:13:18.224Z,54.05
2024-01-27T17:15:47.076Z,28.08
2024-01-27T17:18:15.913Z,18.73
2024-01-27T17:20:45.395Z,15.88
2024-01-27T17:23:13.137Z,14.07
2024-01-27T17:25:43.492Z,15.10
2024-01-27T17:28:11.712Z,14.50
2024-01-27T17:30:39.255Z,12.35
2024-01-27T17:33:07.244Z,13.68
2024-01-27T17:35:34.827Z,15.27
2024-01-27T17:38:03.205Z,11.43
2024-01-27T17:40:31.151Z,16.67
2024-01-27T17:42:59.582Z,18.77
2024-01-27T17:45:27.009Z,18.25
2024-01-27T17:47:56.280Z,15.77
2024-01-27T17:50:23.971Z,21.45
2024-01-27T17:52:52.776Z,16.30
2024-01-27T17:55:21.085Z,14.73
2024-01-27T17:57:48.518Z,18.02
2024-01-27T18:00:19.666Z,15.77
2024-01-27T18:02:48.395Z,18.17
2024-01-27T18:05:15.933Z,15.95
2024-01-27T18:07:43.640Z,17.80
2024-01-27T18:10:11.149Z,17.00
2024-01-27T18:12:42.738Z,16.05
2024-01-27T18:15:11.408Z,20.70
2024-01-27T18:17:38.895Z,18.20
2024-01-27T18:20:07.024Z,21.08
2024-01-27T18:22:34.362Z,17.58
2024-01-27T18:25:01.961Z,19.67
2024-01-27T18:27:29.267Z,21.85
2024-01-27T18:29:57.069Z,23.30
2024-01-27T18:32:24.487Z,19.30
2024-01-27T18:34:53.496Z,23.90
2024-01-27T18:37:21.196Z,21.75
2024-01-27T18:39:48.763Z,27.55
2024-01-27T18:42:16.162Z,27.08
2024-01-27T18:44:44.346Z,26.70
2024-01-27T18:47:11.788Z,26.73
2024-01-27T18:49:39.305Z,23.75
2024-01-27T18:52:07.135Z,25.73
2024-01-27T18:54:34.401Z,25.15
2024-01-27T18:57:03.258Z,25.45
2024-01-27T18:59:31.252Z,28.27
2024-01-27T19:01:58.703Z,25.38
2024-01-27T19:04:27.059Z,23.35
2024-01-27T19:06:54.508Z,25.35
2024-01-27T19:09:22.036Z,20.85
2024-01-27T19:11:49.329Z,21.77
2024-01-27T19:14:17.662Z,25.17
2024-01-27T19:16:45.589Z,26.33
2024-01-27T19:19:13.109Z,22.90
2024-01-27T19:21:40.703Z,28.88
2024-01-27T19:24:08.074Z,22.00
2024-01-27T19:26:36.838Z,20.92
2024-01-27T19:29:04.166Z,24.42
2024-01-27T19:31:32.892Z,21.15
2024-01-27T19:34:00.431Z,26.00
2024-01-27T19:36:27.955Z,26.02
2024-01-27T19:38:55.283Z,19.35
2024-01-27T19:41:22.770Z,23.40
2024-01-27T19:43:50.110Z,25.88
2024-01-27T19:46:17.908Z,28.92
2024-01-27T19:48:45.517Z,22.05
2024-01-27T19:51:13.381Z,21.33
2024-01-27T19:53:41.011Z,25.13
2024-01-27T19:56:13.248Z,24.85
2024-01-27T19:58:42.355Z,23.77
2024-01-27T20:01:09.962Z,22.85
2024-01-27T20:03:37.456Z,20.92
2024-01-27T20:06:05.858Z,22.30
2024-01-27T20:08:33.621Z,19.17
2024-01-27T20:11:01.115Z,22.42
2024-01-27T20:13:28.594Z,21.50
2024-01-27T20:15:56.368Z,23.52
2024-01-27T20:18:23.847Z,19.35
2024-01-27T20:20:54.457Z,14.52
2024-01-27T20:23:22.041Z,17.77
2024-01-27T20:25:49.976Z,13.32
2024-01-27T20:28:17.349Z,18.75
2024-01-27T20:30:45.799Z,19.77
2024-01-27T20:33:13.573Z,22.05
2024-01-27T20:35:41.065Z,19.40
2024-01-27T20:38:08.502Z,18.88
2024-01-27T20:40:35.880Z,19.00
2024-01-27T20:43:06.849Z,16.88
2024-01-27T20:45:35.138Z,18.65
2024-01-27T20:48:02.744Z,17.73
2024-01-27T20:50:30.140Z,19.27
2024-01-27T20:52:57.788Z,17.70
2024-01-27T20:55:26.213Z,16.05
2024-01-27T20:57:53.536Z,18.80
2024-01-27T21:00:20.871Z,18.92
2024-01-27T21:02:48.124Z,16.88
2024-01-27T21:05:15.665Z,14.25
2024-01-27T21:07:44.769Z,13.38
2024-01-27T21:10:12.286Z,15.43
2024-01-27T21:12:40.462Z,14.82
2024-01-27T21:15:08.047Z,18.00
2024-01-27T21:17:35.490Z,13.48
2024-01-27T21:20:04.402Z,17.15
2024-01-27T21:22:34.277Z,11.65
2024-01-27T21:25:01.656Z,12.13
2024-01-27T21:27:29.876Z,18.73
2024-01-27T21:29:57.524Z,26.95
2024-01-27T21:32:24.960Z,20.45
2024-01-27T21:34:54.584Z,23.55
2024-01-27T21:37:21.971Z,25.23
2024-01-27T21:39:49.499Z,19.67
2024-01-27T21:42:17.168Z,13.10
2024-01-27T21:44:45.238Z,13.20
2024-01-27T21:47:15.197Z,9.57
2024-01-27T21:49:42.950Z,9.70
2024-01-27T21:52:10.266Z,11.25
2024-01-27T21:54:41.753Z,12.93
2024-01-27T21:57:09.671Z,15.18
2024-01-27T21:59:37.089Z,16.48
2024-01-27T22:02:04.740Z,13.02
2024-01-27T22:04:32.203Z,12.68
2024-01-27T22:06:59.920Z,14.15
2024-01-27T22:09:27.511Z,11.38
2024-01-27T22:11:55.712Z,14.80
2024-01-27T22:14:26.507Z,17.00
2024-01-27T22:16:53.832Z,12.38
2024-01-27T22:19:21.309Z,14.93
2024-01-27T22:21:54.169Z,11.38
2024-01-27T22:24:23.111Z,14.38
2024-01-27T22:26:50.710Z,12.60
2024-01-27T22:29:18.195Z,14.45
2024-01-27T22:31:45.486Z,12.90
2024-01-27T22:34:12.856Z,14.55
2024-01-27T22:36:40.437Z,14.73
2024-01-27T22:39:10.686Z,14.82
2024-01-27T22:41:38.100Z,14.60
2024-01-27T22:44:05.434Z,17.50
2024-01-27T22:46:32.930Z,19.17
2024-01-27T22:49:00.565Z,15.48
2024-01-27T22:51:28.031Z,16.48
2024-01-27T22:53:55.281Z,14.23
2024-01-27T22:56:22.830Z,13.82
2024-01-27T22:58:50.162Z,17.95
2024-01-27T23:01:17.902Z,14.32
2024-01-27T23:03:45.505Z,17.35
2024-01-27T23:06:14.334Z,17.42
2024-01-27T23:08:42.809Z,15.85
2024-01-27T23:11:11.291Z,23.17
2024-01-27T23:13:39.608Z,16.67
2024-01-27T23:16:08.756Z,17.02
2024-01-27T23:18:37.433Z,22.63
2024-01-27T23:21:05.121Z,18.73
2024-01-27T23:23:32.407Z,17.40
2024-01-27T23:25:59.917Z,15.90
2024-01-27T23:28:27.267Z,25.30
2024-01-27T23:30:55.335Z,16.73
2024-01-27T23:33:24.318Z,18.65
2024-01-27T23:35:51.856Z,17.75
2024-01-27T23:38:21.942Z,13.25
2024-01-27T23:40:50.321Z,21.40
2024-01-27T23:43:18.887Z,19.52
2024-01-27T23:45:46.401Z,19.17
2024-01-27T23:48:14.470Z,16.45
2024-01-27T23:50:41.887Z,17.95
2024-01-27T23:53:10.481Z,19.45
2024-01-27T23:55:50.117Z,18.38
2024-01-27T23:58:18.263Z,18.15
